createdAt,value
2023-05-12T00:03:32.625Z,97941.72
2023-05-12T00:06:03.642Z,97938.88
2023-05-12T00:08:31.538Z,97935.25
2023-05-12T00:10:58.619Z,97940.94
2023-05-12T00:13:25.693Z,97930.50
2023-05-12T00:15:54.923Z,97941.47
2023-05-12T00:18:22.142Z,97938.16
2023-05-12T00:20:49.090Z,97942.00
2023-05-12T00:23:15.955Z,97940.69
2023-05-12T00:25:42.648Z,97932.28
2023-05-12T00:28:10.031Z,97935.34
2023-05-12T00:30:36.856Z,97937.00
2023-05-12T00:33:04.591Z,97938.31
2023-05-12T00:35:31.840Z,97934.31
2023-05-12T00:37:58.648Z,97937.56
2023-05-12T00:40:28.857Z,97935.72
2023-05-12T00:42:55.662Z,97934.22
2023-05-12T00:45:22.573Z,97946.28
2023-05-12T00:47:51.952Z,97930.03
2023-05-12T00:50:19.354Z,97937.22
2023-05-12T00:52:48.055Z,97928.53
2023-05-12T00:55:15.602Z,97926.56
2023-05-12T00:57:43.915Z,97927.22
2023-05-12T01:00:12.898Z,97936.94
2023-05-12T01:02:42.278Z,97935.56
2023-05-12T01:05:10.152Z,97934.88
2023-05-12T01:07:39.471Z,97928.78
2023-05-12T01:10:21.195Z,97937.00
2023-05-12T01:12:48.654Z,97936.69
2023-05-12T01:15:16.864Z,97932.50
2023-05-12T01:17:54.391Z,97937.00
2023-05-12T01:20:25.800Z,97941.25
2023-05-12T01:22:54.833Z,97933.81
2023-05-12T01:25:25.426Z,97946.22
2023-05-12T01:27:54.071Z,97952.25
2023-05-12T01:30:24.709Z,97944.38
2023-05-12T01:32:52.488Z,97954.75
2023-05-12T01:35:20.004Z,97947.28
2023-05-12T01:37:57.249Z,97953.38
2023-05-12T01:40:24.450Z,97948.53
2023-05-12T01:42:51.716Z,97956.91
2023-05-12T01:45:19.077Z,97958.13
2023-05-12T01:47:46.980Z,97961.75
2023-05-12T01:50:13.976Z,97958.13
2023-05-12T01:52:41.140Z,97954.63
2023-05-12T01:55:11.939Z,97956.69
2023-05-12T01:57:59.085Z,97965.09
2023-05-12T02:00:27.288Z,97965.59
2023-05-12T02:02:56.833Z,97954.22
2023-05-12T02:05:23.862Z,97962.88
2023-05-12T02:07:50.864Z,97968.53
2023-05-12T02:10:18.745Z,97968.19
2023-05-12T02:12:45.966Z,97961.53
2023-05-12T02:15:13.036Z,97965.78
2023-05-12T02:17:44.374Z,97966.13
2023-05-12T02:20:12.407Z,97971.53
2023-05-12T02:22:39.568Z,97963.97
2023-05-12T02:25:07.311Z,97977.91
2023-05-12T02:27:34.880Z,97972.50
2023-05-12T02:30:02.036Z,97980.78
2023-05-12T02:32:29.788Z,97973.38
2023-05-12T02:34:57.043Z,97973.41
2023-05-12T02:37:24.063Z,97980.69
2023-05-12T02:39:50.879Z,97977.94
2023-05-12T02:42:18.772Z,97981.72
2023-05-12T02:44:45.580Z,97983.69
2023-05-12T02:47:12.736Z,97985.38
2023-05-12T02:49:39.708Z,97988.16
2023-05-12T02:52:06.750Z,97982.56
2023-05-12T02:54:33.674Z,97987.44
2023-05-12T02:57:05.090Z,97985.91
2023-05-12T02:59:32.333Z,97974.53
2023-05-12T03:01:59.372Z,97975.94
2023-05-12T03:04:26.539Z,97970.75
2023-05-12T03:06:54.384Z,97980.41
2023-05-12T03:09:21.388Z,97974.25
2023-05-12T03:11:48.662Z,97969.34
2023-05-12T03:14:15.467Z,97975.78
2023-05-12T03:16:42.834Z,97975.38
2023-05-12T03:19:10.137Z,97989.78
2023-05-12T03:21:37.408Z,97982.19
2023-05-12T03:24:04.795Z,97980.38
2023-05-12T03:26:31.905Z,97982.50
2023-05-12T03:28:58.842Z,97983.69
2023-05-12T03:31:26.163Z,97987.22
2023-05-12T03:33:53.724Z,97985.66
2023-05-12T03:36:21.068Z,97977.59
2023-05-12T03:38:48.209Z,97981.09
2023-05-12T03:41:15.096Z,97976.31
2023-05-12T03:43:42.534Z,97987.69
2023-05-12T03:46:09.466Z,97987.50
2023-05-12T03:48:37.121Z,97988.97
2023-05-12T03:51:04.381Z,97984.31
2023-05-12T03:53:31.274Z,97975.00
2023-05-12T03:55:58.325Z,97982.50
2023-05-12T03:58:26.514Z,97992.03
2023-05-12T04:00:58.722Z,97998.00
2023-05-12T04:03:26.723Z,98001.47
2023-05-12T04:06:04.915Z,97993.16
2023-05-12T04:08:32.208Z,97988.69
2023-05-12T04:11:02.542Z,98004.88
2023-05-12T04:13:32.092Z,98003.28
2023-05-12T04:16:00.254Z,98005.63
2023-05-12T04:18:29.010Z,98012.19
2023-05-12T04:20:56.662Z,98013.09
2023-05-12T04:23:23.989Z,98015.56
2023-05-12T04:25:51.356Z,98009.81
2023-05-12T04:28:18.734Z,98021.56
2023-05-12T04:30:50.929Z,98025.50
2023-05-12T04:33:18.425Z,98031.13
2023-05-12T04:35:45.733Z,98027.28
2023-05-12T04:38:14.223Z,98029.13
